Berlin, New Hampshire
Current Conditions -  °F | °C
As of 6:52 AM on Saturday 01 Nov 2014 (Local Time) from KBML Reporting Station
Overcast Overcast  
Wind Chill:   Ceiling: 2400
Heat Index:   Visibility: 10mi
Dew Point: -2°   Wind: 0mph
Humidity: 85%   Direction: NA
Pressure: 29.99"   Gusts: NA
Location:  44.47°N, 71.18°W
Report Text: KBML 011052Z AUTO 00000KT 10SM BKN024 OVC049 00/M02 A2999 RMK AO2 SLP166 T00001022
Loading
Personal Weather Stations






























Interactive Weather Map
Tropical Storm Tracking
New forecast layout! Learn more

10-Day Weather Forecast

Advertisements
Track Severe Weather on mobile